Flight Track Log - Related Links

Times and Time Zones

All times are in EDT time to prevent confusion due to time zone crossing. See the DAL268 flight status page for this flight to view local times or setup timezone preferences in your user account.

Time Position Orientation Groundspeed Altitude Reporting Facility
EDT Latitude Longitude Course Direction KTS MPH feet Rate Location/Type
Thu 06:27:42 PM 33.6333 -84.3333 64° Northeast 229 264 3,000  Level Atlanta TRACON
Thu 06:28:43 PM 33.6333 -84.2500 90° East 273 314 5,400 2,479 Climbing Atlanta TRACON
Thu 06:29:00 PM 33.7118 -84.0040 101° East  Level FlightAware Approximate
Thu 06:29:43 PM 33.6333 -84.1500 90° East 286 329 8,000  Level Atlanta TRACON
Thu 06:30:00 PM 33.6886 -83.8646 101° East  Level FlightAware Approximate
Thu 06:30:48 PM 33.6336 -84.0614 90° East 293 337 10,200  Level Atlanta Center
Thu 06:31:00 PM 33.6653 -83.7253 101° East  Level FlightAware Approximate
Thu 06:31:48 PM 33.6419 -83.9539 85° East 302 348 11,300  Level Atlanta Center
Thu 06:32:00 PM 33.6677 -83.5901 64° Northeast  Level FlightAware Approximate
Thu 06:32:48 PM 33.6481 -83.8317 87° East 345 397 12,700  Level Atlanta Center
Thu 06:33:00 PM 33.7198 -83.4625 64° Northeast  Level FlightAware Approximate
Thu 06:33:48 PM 33.6561 -83.6919 86° East 395 455 14,500  Level Atlanta Center
Thu 06:34:48 PM 33.6911 -83.5569 73° East 411 473 16,500 1,750 Climbing Atlanta Center
Thu 06:35:48 PM 33.7425 -83.4292 64° Northeast 424 488 18,000 1,650 Climbing Atlanta Center
Thu 06:36:48 PM 33.7983 -83.2939 64° Northeast 441 507 19,800 1,600 Climbing Atlanta Center
Thu 06:37:48 PM 33.8536 -83.1558 64° Northeast 448 516 21,200 1,300 Climbing Atlanta Center
Thu 06:38:48 PM 33.9131 -83.0025 65° Northeast 448 516 22,400 1,050 Climbing Atlanta Center
Thu 06:39:48 PM 33.9744 -82.8614 62° Northeast 460 529 23,300 1,000 Climbing Atlanta Center
Thu 06:40:48 PM 34.0314 -82.7128 65° Northeast 473 544 24,400 1,100 Climbing Atlanta Center
Thu 06:41:48 PM 34.0858 -82.5664 66° East 483 556 25,500 1,200 Climbing Atlanta Center
Thu 06:42:48 PM 34.1489 -82.4172 63° Northeast 483 556 26,800 1,200 Climbing Atlanta Center
Thu 06:43:48 PM 34.2053 -82.2706 65° Northeast 483 556 27,900 1,150 Climbing Atlanta Center
Thu 06:44:48 PM 34.2656 -82.1208 64° Northeast 483 556 29,100 1,000 Climbing Atlanta Center
Thu 06:45:48 PM 34.3342 -81.9836 59° Northeast 483 556 29,900 800 Climbing Atlanta Center
Thu 06:46:48 PM 34.4069 -81.8408 58° Northeast 489 563 30,700 550 Climbing Atlanta Center
Thu 06:47:48 PM 34.4753 -81.6981 60° Northeast 489 563 31,000 150 Climbing Atlanta Center
Thu 06:48:48 PM 34.5497 -81.5547 58° Northeast 489 563 31,000  Level Atlanta Center
Thu 06:49:48 PM 34.6217 -81.4086 59° Northeast 496 571 31,000  Level Atlanta Center
Thu 06:50:48 PM 34.6836 -81.2803 60° Northeast 496 571 31,000  Level Atlanta Center
Thu 06:51:48 PM 34.7575 -81.1339 58° Northeast 503 579 31,000  Level Atlanta Center
Thu 06:52:48 PM 34.8292 -80.9872 59° Northeast 501 577 31,000  Level Atlanta Center
Thu 06:53:48 PM 34.8983 -80.8403 60° Northeast 509 586 31,000  Level Atlanta Center
Thu 06:54:48 PM 34.9694 -80.6906 60° Northeast 509 586 31,000  Level Atlanta Center
Thu 06:55:48 PM 35.0444 -80.5403 59° Northeast 509 586 31,000  Level Atlanta Center
Thu 06:58:08 PM 35.2125 -80.1806 60° Northeast 510 587 31,000  Level Washington Center
Thu 06:59:08 PM 35.2733 -80.0594 58° Northeast 510 587 31,000  Level Washington Center
Thu 07:00:06 PM 35.3525 -79.8983 59° Northeast 510 587 31,000  Level Washington Center
Thu 07:01:06 PM 35.4244 -79.7467 60° Northeast 505 581 31,000  Level Washington Center
Thu 07:02:07 PM 35.4964 -79.6000 59° Northeast 505 581 31,000  Level Washington Center
Thu 07:03:08 PM 35.5661 -79.4478 61° Northeast 505 581 31,000  Level Washington Center
Thu 07:04:06 PM 35.6397 -79.2953 59° Northeast 505 581 31,000  Level Washington Center
Thu 07:05:07 PM 35.7111 -79.1428 60° Northeast 505 581 31,000  Level Washington Center
Thu 07:06:07 PM 35.7822 -78.9922 60° Northeast 505 581 31,000  Level Washington Center
Thu 07:07:08 PM 35.8556 -78.8364 60° Northeast 510 587 31,000  Level Washington Center
Thu 07:08:08 PM 35.8892 -78.6661 76° East 510 587 31,000  Level Washington Center
Thu 07:09:08 PM 35.9103 -78.4950 81° East 503 579 31,000  Level Washington Center
Thu 07:10:06 PM 35.9269 -78.3186 83° East 508 585 31,000  Level Washington Center
Thu 07:11:06 PM 35.9431 -78.1447 83° East 508 585 31,000  Level Washington Center
Thu 07:12:07 PM 35.9572 -77.9708 84° East 508 585 31,000  Level Washington Center
Thu 07:13:08 PM 35.9753 -77.7917 83° East 513 590 31,000  Level Washington Center
Thu 07:14:06 PM 36.0281 -77.6314 68° East 511 588 31,000  Level Washington Center
Thu 07:15:06 PM 36.1158 -77.4922 52° Northeast 498 573 31,000  Level Washington Center
Thu 07:16:08 PM 36.2158 -77.3786 42° Northeast 497 572 31,000  Level Washington Center
Thu 07:17:09 PM 36.3258 -77.2678 39° Northeast 484 557 31,000  Level Washington Center
Thu 07:18:06 PM 36.4339 -77.1564 40° Northeast 504 580 31,000  Level Washington Center
Thu 07:19:07 PM 36.5436 -77.0422 40° Northeast 504 580 31,000  Level Washington Center
Thu 07:20:07 PM 36.6556 -76.9278 39° Northeast 510 587 31,000  Level Washington Center
Thu 07:21:08 PM 36.7653 -76.8183 39° Northeast 505 581 31,000  Level Washington Center
Thu 07:22:07 PM 36.8769 -76.7031 40° Northeast 505 581 31,000  Level Washington Center
Thu 07:23:08 PM 36.9864 -76.5878 40° Northeast 505 581 31,000  Level Washington Center
Thu 07:24:06 PM 37.1064 -76.4617 40° Northeast 510 587 31,000  Level Washington Center
Thu 07:25:06 PM 37.2197 -76.3456 39° Northeast 510 587 31,000  Level Washington Center
Thu 07:26:06 PM 37.3308 -76.2317 39° Northeast 510 587 31,000  Level Washington Center
Thu 07:27:06 PM 37.4442 -76.1203 38° Northeast 510 587 31,000  Level Washington Center
Thu 07:28:08 PM 37.5550 -76.0031 40° Northeast 515 593 31,000  Level Washington Center
Thu 07:29:05 PM 37.6681 -75.8883 39° Northeast 515 593 31,000  Level Washington Center
Thu 07:30:06 PM 37.7789 -75.7706 40° Northeast 520 598 31,000  Level Washington Center
Thu 07:31:07 PM 37.8894 -75.6522 40° Northeast 520 598 31,000  Level Washington Center
Thu 07:32:08 PM 38.0000 -75.5339 40° Northeast 520 598 31,000  Level Washington Center
Thu 07:33:08 PM 38.1231 -75.4361 32° Northeast 520 598 31,000  Level Washington Center
Thu 07:34:06 PM 38.2481 -75.3539 27° Northeast 513 590 31,000  Level Washington Center
Thu 07:35:06 PM 38.3603 -75.2686 31° Northeast 513 590 31,000  Level Washington Center
Thu 07:36:07 PM 38.4914 -75.1939 24° Northeast 508 585 31,000  Level Washington Center
Thu 07:37:07 PM 38.6183 -75.1081 28° Northeast 508 585 31,000  Level Washington Center
Thu 07:38:08 PM 38.7472 -75.0300 25° Northeast 508 585 31,000  Level Washington Center
Thu 07:39:08 PM 38.8739 -74.9436 28° Northeast 508 585 31,000  Level Washington Center
Thu 07:40:06 PM 39.0006 -74.8650 26° Northeast 508 585 31,000 -303 Level Washington Center
Thu 07:41:07 PM 39.1231 -74.7703 31° Northeast 508 585 30,400 -2,292 Descending Washington Center
Thu 07:43:04 PM 39.3511 -74.5322 39° Northeast 516 594 24,200 -2,966 Descending New York Center
Thu 07:44:05 PM 39.4419 -74.4269 42° Northeast 491 565 21,600 -2,628 Descending New York Center
Thu 07:45:05 PM 39.5519 -74.3086 40° Northeast 470 541 18,900 -1,850 Descending New York Center
Thu 07:46:05 PM 39.6489 -74.2031 40° Northeast 463 533 17,900 -1,686 Descending New York Center
Thu 07:47:06 PM 39.7328 -74.1100 40° Northeast 450 518 15,500 -2,067 Descending New York Center
Thu 07:48:04 PM 39.8317 -74.0011 40° Northeast 433 498 13,800 -1,576 Descending New York Center
Thu 07:49:04 PM 39.9233 -73.9297 31° Northeast 397 457 12,400 -1,339 Descending New York Center
Thu 07:50:05 PM 40.0047 -73.8519 36° Northeast 375 432 11,100 -738 Descending New York Center
Thu 07:51:06 PM 40.0775 -73.7739 39° Northeast 342 394 10,900 -706 Descending New York Center
Thu 07:52:04 PM 40.1394 -73.7114 38° Northeast 326 375 9,700 -1,385 Descending New York Center
Thu 07:53:03 PM 40.2167 -73.7500 339° North 281 323 8,200 -1,765 Descending New York TRACON
Thu 07:54:03 PM 40.2833 -73.8167 323° Northwest 291 335 6,200 -1,800 Descending New York TRACON
Thu 07:55:03 PM 40.3500 -73.8667 330° Northwest 284 327 4,600 -1,474 Descending New York TRACON
Thu 07:55:57 PM 40.4000 -73.9167 323° Northwest 281 323 3,400 -895 Descending New York TRACON
Thu 07:56:57 PM 40.4667 -73.9667 330° Northwest 255 293 2,900 -200 Descending New York TRACON
Thu 07:57:57 PM 40.5333 -73.9667 360° North 217 250 3,000 -450 Climbing New York TRACON
Thu 07:58:57 PM 40.5833 -73.9333 27° Northeast 210 242 2,000 -1,000 Descending New York TRACON

Login

Don't have an account? Register now (free) for customized features, flight alerts, and more!